Time;durP1;ratioP1;P1;durP2;ratioP2;P2;SDS_P1;SDS_P2;PMS_P1;PMS_P2;Temp;Humidity;BMP_temperature;BMP_pressure;BME280_temperature;BME280_humidity;BME280_pressure;Samples;Min_cycle;Max_cycle;Signal;HPM_P1;HPM_P2
2023/08/09 00:01:09;;;;;;;714.10;615.33;;;;;;;;;;5027993;28;20044;-63
2023/08/09 00:03:36;;;;;;;717.25;612.83;;;;;;;;;;5027830;28;20070;-63
2023/08/09 00:06:02;;;;;;;720.00;613.50;;;;;;;;;;5028273;28;20046;-64
2023/08/09 00:08:29;;;;;;;714.63;602.85;;;;;;;;;;5028968;28;20523;-64
2023/08/09 00:10:56;;;;;;;715.38;614.95;;;;;;;;;;5027949;28;20038;-64
2023/08/09 00:13:24;;;;;;;723.60;614.95;;;;;;;;;;5028002;28;20119;-61
2023/08/09 00:15:51;;;;;;;698.78;608.95;;;;;;;;;;5027205;28;20052;-62
2023/08/09 00:18:18;;;;;;;722.85;608.78;;;;;;;;;;5028083;28;20132;-63
2023/08/09 00:20:44;;;;;;;749.13;617.65;;;;;;;;;;5027863;28;20045;-62
2023/08/09 00:23:13;;;;;;;717.63;616.15;;;;;;;;;;5028641;28;20071;-61
2023/08/09 00:25:41;;;;;;;739.30;609.20;;;;;;;;;;5026700;28;20113;-64
2023/08/09 00:28:07;;;;;;;731.03;605.33;;;;;;;;;;5027978;28;20041;-62
2023/08/09 00:30:36;;;;;;;722.55;599.58;;;;;;;;;;5009866;28;20111;-64
2023/08/09 00:33:04;;;;;;;720.08;605.22;;;;;;;;;;5009559;28;20041;-64
2023/08/09 00:35:31;;;;;;;731.03;611.88;;;;;;;;;;5010977;28;20134;-63
2023/08/09 00:38:29;;;;;;;723.22;618.65;;;;;;;;;;5026560;28;20491;-62
2023/08/09 00:40:55;;;;;;;704.92;606.25;;;;;;;;;;5023147;28;20042;-62
2023/08/09 00:43:22;;;;;;;700.28;618.45;;;;;;;;;;5009924;28;20038;-62
2023/08/09 00:45:49;;;;;;;729.70;610.25;;;;;;;;;;5030235;28;20111;-62
2023/08/09 00:48:16;;;;;;;722.35;605.63;;;;;;;;;;5023175;28;20049;-62
2023/08/09 00:50:43;;;;;;;716.85;607.17;;;;;;;;;;4996214;28;20050;-62
2023/08/09 00:53:10;;;;;;;714.30;602.40;;;;;;;;;;5010322;28;20048;-63
2023/08/09 00:55:38;;;;;;;746.42;610.63;;;;;;;;;;5029801;28;20095;-64
2023/08/09 00:58:04;;;;;;;719.50;604.47;;;;;;;;;;5013184;28;20402;-63
2023/08/09 01:00:31;;;;;;;727.72;601.53;;;;;;;;;;5012179;28;20052;-63
2023/08/09 01:02:58;;;;;;;710.63;595.03;;;;;;;;;;5031240;28;20145;-62
2023/08/09 01:05:27;;;;;;;690.10;587.10;;;;;;;;;;5033948;28;20046;-63
2023/08/09 01:07:58;;;;;;;725.13;602.33;;;;;;;;;;5012120;28;20140;-63
2023/08/09 01:10:38;;;;;;;703.08;603.42;;;;;;;;;;5012731;28;20501;-63
2023/08/09 01:13:06;;;;;;;694.47;587.83;;;;;;;;;;5030123;28;20048;-62
2023/08/09 01:15:33;;;;;;;746.72;598.88;;;;;;;;;;5029929;28;20631;-62
2023/08/09 01:18:01;;;;;;;722.60;594.20;;;;;;;;;;5013070;28;20049;-63
2023/08/09 01:20:29;;;;;;;724.50;595.85;;;;;;;;;;5029688;28;20395;-63
2023/08/09 01:22:59;;;;;;;716.50;599.17;;;;;;;;;;5011814;28;20096;-63
2023/08/09 01:25:26;;;;;;;726.67;589.95;;;;;;;;;;5012352;28;20131;-62
2023/08/09 01:27:53;;;;;;;697.72;587.92;;;;;;;;;;5030028;28;20137;-62
2023/08/09 01:30:19;;;;;;;710.38;588.63;;;;;;;;;;5029453;28;20121;-62
2023/08/09 01:32:46;;;;;;;698.55;577.05;;;;;;;;;;5030408;28;20497;-63
2023/08/09 01:35:13;;;;;;;721.92;585.08;;;;;;;;;;5011639;28;20493;-63
2023/08/09 01:37:45;;;;;;;748.60;592.22;;;;;;;;;;5029547;28;20048;-63
2023/08/09 01:40:14;;;;;;;707.90;571.90;;;;;;;;;;5007610;28;20132;-62
2023/08/09 01:42:41;;;;;;;720.90;589.35;;;;;;;;;;5029169;28;20095;-62
2023/08/09 01:45:10;;;;;;;731.55;575.70;;;;;;;;;;5029691;28;20052;-63
2023/08/09 01:47:39;;;;;;;717.15;571.78;;;;;;;;;;5029682;28;20112;-63
2023/08/09 01:50:06;;;;;;;693.45;577.22;;;;;;;;;;5011515;28;20388;-62
2023/08/09 01:52:33;;;;;;;695.40;569.47;;;;;;;;;;5029452;28;20073;-63
2023/08/09 01:54:59;;;;;;;717.83;572.42;;;;;;;;;;5028647;28;20038;-62
2023/08/09 01:57:26;;;;;;;727.30;574.88;;;;;;;;;;5028829;28;20117;-63
2023/08/09 01:59:52;;;;;;;686.17;581.08;;;;;;;;;;5004550;28;20054;-63
2023/08/09 02:02:19;;;;;;;721.13;597.00;;;;;;;;;;5046587;22;20060;-66
2023/08/09 02:04:46;;;;;;;749.60;589.63;;;;;;;;;;5018120;28;20048;-70
2023/08/09 02:07:12;;;;;;;715.38;580.38;;;;;;;;;;5019566;28;20045;-65
2023/08/09 02:09:40;;;;;;;705.70;589.13;;;;;;;;;;5019506;28;20041;-67
2023/08/09 02:12:06;;;;;;;718.53;575.22;;;;;;;;;;5017047;28;20069;-65
2023/08/09 02:14:33;;;;;;;720.40;592.40;;;;;;;;;;5019945;28;20112;-63
2023/08/09 02:17:00;;;;;;;726.20;578.95;;;;;;;;;;5013659;28;20034;-66
2023/08/09 02:19:29;;;;;;;718.63;578.92;;;;;;;;;;5017333;28;20086;-65
2023/08/09 02:21:56;;;;;;;699.47;579.65;;;;;;;;;;5025145;28;20061;-66
2023/08/09 02:24:23;;;;;;;735.95;582.47;;;;;;;;;;5018494;28;20049;-63
2023/08/09 02:26:50;;;;;;;694.75;580.47;;;;;;;;;;5021554;28;20037;-66
2023/08/09 02:29:17;;;;;;;720.70;585.40;;;;;;;;;;5020032;28;20034;-64
2023/08/09 02:31:43;;;;;;;723.97;575.70;;;;;;;;;;5018327;28;20037;-64
2023/08/09 02:34:11;;;;;;;715.08;568.83;;;;;;;;;;5019193;28;20133;-67
2023/08/09 02:36:37;;;;;;;703.90;570.85;;;;;;;;;;5020637;28;20045;-67
2023/08/09 02:39:07;;;;;;;749.63;591.67;;;;;;;;;;5004364;28;20058;-69
2023/08/09 02:41:34;;;;;;;706.25;582.08;;;;;;;;;;5019312;28;20034;-65
2023/08/09 02:44:01;;;;;;;711.28;573.50;;;;;;;;;;5019222;28;20037;-70
2023/08/09 02:46:28;;;;;;;704.78;570.08;;;;;;;;;;5017042;28;20486;-65
2023/08/09 02:48:54;;;;;;;714.30;563.33;;;;;;;;;;5016571;28;20047;-66
2023/08/09 02:51:21;;;;;;;704.78;559.05;;;;;;;;;;5019573;28;20077;-71
2023/08/09 02:54:01;;;;;;;707.80;564.63;;;;;;;;;;5022920;28;20069;-66
2023/08/09 02:56:28;;;;;;;713.13;560.97;;;;;;;;;;5018969;28;20039;-66
2023/08/09 02:58:55;;;;;;;828.25;567.70;;;;;;;;;;5018674;28;20124;-66
2023/08/09 03:01:21;;;;;;;738.15;554.60;;;;;;;;;;5023146;28;20053;-66
2023/08/09 03:03:50;;;;;;;695.00;558.78;;;;;;;;;;5024126;28;20481;-68
2023/08/09 03:06:17;;;;;;;691.33;562.92;;;;;;;;;;5003478;28;20045;-65
2023/08/09 03:08:44;;;;;;;709.97;563.20;;;;;;;;;;5021807;28;20133;-65
2023/08/09 03:11:11;;;;;;;707.60;554.00;;;;;;;;;;5038113;28;20053;-66
2023/08/09 03:13:38;;;;;;;741.55;563.22;;;;;;;;;;5020112;28;20071;-64
2023/08/09 03:16:05;;;;;;;717.30;572.35;;;;;;;;;;5020199;28;20469;-65
2023/08/09 03:18:32;;;;;;;703.30;552.75;;;;;;;;;;5029005;28;20076;-68
2023/08/09 03:20:58;;;;;;;689.47;553.33;;;;;;;;;;5003041;28;20116;-66
2023/08/09 03:23:25;;;;;;;703.80;557.67;;;;;;;;;;5022264;28;20671;-65
2023/08/09 03:25:52;;;;;;;703.53;567.83;;;;;;;;;;5020890;28;20048;-66
2023/08/09 03:28:19;;;;;;;697.08;552.33;;;;;;;;;;5020603;28;20041;-65
2023/08/09 03:30:45;;;;;;;700.65;555.70;;;;;;;;;;5023768;28;20053;-68
2023/08/09 03:33:12;;;;;;;732.25;561.83;;;;;;;;;;5022277;28;20041;-65
2023/08/09 03:35:40;;;;;;;697.25;554.10;;;;;;;;;;5022231;28;20188;-66
2023/08/09 03:38:06;;;;;;;716.67;565.13;;;;;;;;;;5020524;28;20028;-68
2023/08/09 03:40:33;;;;;;;710.42;555.83;;;;;;;;;;5037770;28;20533;-70
2023/08/09 03:43:00;;;;;;;717.42;559.05;;;;;;;;;;5038917;28;20053;-66
2023/08/09 03:45:27;;;;;;;698.90;549.63;;;;;;;;;;5019079;28;20045;-68
2023/08/09 03:47:55;;;;;;;712.17;555.28;;;;;;;;;;5039393;28;20107;-70
2023/08/09 03:50:23;;;;;;;705.80;553.20;;;;;;;;;;5039718;28;20072;-64
2023/08/09 03:52:50;;;;;;;721.00;554.25;;;;;;;;;;5037343;28;20055;-68
2023/08/09 03:55:16;;;;;;;714.70;552.47;;;;;;;;;;5037658;28;20118;-66
2023/08/09 03:57:43;;;;;;;702.95;551.15;;;;;;;;;;5020985;28;20049;-67
2023/08/09 04:00:17;;;;;;;709.35;542.53;;;;;;;;;;5021336;28;20041;-66
2023/08/09 04:02:45;;;;;;;716.88;548.75;;;;;;;;;;5023270;28;20057;-68
2023/08/09 04:05:12;;;;;;;706.63;543.20;;;;;;;;;;5021656;28;20044;-65
2023/08/09 04:07:38;;;;;;;732.92;548.40;;;;;;;;;;5039035;28;20507;-66
2023/08/09 04:10:06;;;;;;;711.25;544.38;;;;;;;;;;5023297;28;20057;-67
2023/08/09 04:12:34;;;;;;;719.60;565.40;;;;;;;;;;5020589;28;20050;-64
2023/08/09 04:15:01;;;;;;;714.72;566.95;;;;;;;;;;5021300;28;20076;-68
2023/08/09 04:17:28;;;;;;;724.65;569.47;;;;;;;;;;5020260;28;20037;-67
2023/08/09 04:19:55;;;;;;;716.60;562.97;;;;;;;;;;5022405;28;20063;-67
2023/08/09 04:22:22;;;;;;;712.00;575.05;;;;;;;;;;5040615;28;20041;-65
2023/08/09 04:24:48;;;;;;;697.50;582.35;;;;;;;;;;5043374;28;20041;-67
2023/08/09 04:27:15;;;;;;;716.20;598.60;;;;;;;;;;5040280;28;20033;-66
2023/08/09 04:29:42;;;;;;;729.45;607.40;;;;;;;;;;5024480;28;20045;-66
2023/08/09 04:32:08;;;;;;;746.08;609.25;;;;;;;;;;5025266;28;20053;-67
2023/08/09 04:34:35;;;;;;;737.00;621.83;;;;;;;;;;5039844;28;20576;-66
2023/08/09 04:37:01;;;;;;;714.67;614.60;;;;;;;;;;5043414;28;20033;-63
2023/08/09 04:39:29;;;;;;;783.15;635.90;;;;;;;;;;5041910;28;20103;-64
2023/08/09 04:41:56;;;;;;;712.15;620.42;;;;;;;;;;5027616;28;20037;-69
2023/08/09 04:44:25;;;;;;;740.00;615.55;;;;;;;;;;5046702;28;20041;-68
2023/08/09 04:46:51;;;;;;;761.92;632.95;;;;;;;;;;5050337;28;20079;-69
2023/08/09 04:49:18;;;;;;;702.63;611.83;;;;;;;;;;5016527;28;20534;-67
2023/08/09 04:51:44;;;;;;;715.80;611.17;;;;;;;;;;5048682;28;20529;-66
2023/08/09 04:54:11;;;;;;;753.75;628.25;;;;;;;;;;5031872;28;20091;-72
2023/08/09 04:56:38;;;;;;;725.08;609.58;;;;;;;;;;5032504;28;20126;-70
2023/08/09 04:59:05;;;;;;;800.38;695.00;;;;;;;;;;5031722;28;20043;-70
2023/08/09 05:01:32;;;;;;;786.42;701.50;;;;;;;;;;5032409;28;20045;-67
2023/08/09 05:03:59;;;;;;;824.38;739.78;;;;;;;;;;5030866;28;20037;-67
2023/08/09 05:06:27;;;;;;;875.85;787.22;;;;;;;;;;5032049;28;20040;-69
2023/08/09 05:08:54;;;;;;;954.78;857.33;;;;;;;;;;5024487;28;20049;-70
2023/08/09 05:11:21;;;;;;;931.83;840.33;;;;;;;;;;5042270;28;20493;-69
2023/08/09 05:13:47;;;;;;;950.17;860.00;;;;;;;;;;5022852;28;20125;-66
2023/08/09 05:16:16;;;;;;;974.88;882.00;;;;;;;;;;5042674;28;20037;-66
2023/08/09 05:18:43;;;;;;;992.70;902.33;;;;;;;;;;5025033;28;20073;-65
2023/08/09 05:21:09;;;;;;;1013.72;920.42;;;;;;;;;;5040275;28;20083;-67
2023/08/09 05:23:36;;;;;;;1033.50;938.03;;;;;;;;;;5041223;28;20049;-67
2023/08/09 05:26:02;;;;;;;1035.35;943.17;;;;;;;;;;5041070;28;20040;-65
2023/08/09 05:28:29;;;;;;;1047.40;952.60;;;;;;;;;;5040943;28;20056;-65
2023/08/09 05:30:55;;;;;;;1057.18;956.90;;;;;;;;;;5039385;28;20069;-66
2023/08/09 05:33:22;;;;;;;1065.05;970.53;;;;;;;;;;5040695;28;20029;-69
2023/08/09 05:35:49;;;;;;;1077.97;982.60;;;;;;;;;;5036259;28;20544;-67
2023/08/09 05:38:15;;;;;;;1086.97;990.33;;;;;;;;;;5023597;28;20095;-66
2023/08/09 05:40:42;;;;;;;1087.65;990.95;;;;;;;;;;5004308;28;20577;-66
2023/08/09 05:43:08;;;;;;;1093.90;994.97;;;;;;;;;;5038496;28;20033;-66
2023/08/09 05:45:35;;;;;;;1109.00;999.90;;;;;;;;;;5041209;28;20033;-65
2023/08/09 05:48:02;;;;;;;1105.72;999.83;;;;;;;;;;5045278;28;20075;-64
2023/08/09 05:50:29;;;;;;;1113.25;999.90;;;;;;;;;;5041094;28;20045;-65
2023/08/09 05:52:56;;;;;;;1116.97;999.90;;;;;;;;;;5022848;28;20172;-69
2023/08/09 05:55:23;;;;;;;1110.25;999.90;;;;;;;;;;5041090;28;20038;-66
2023/08/09 05:57:50;;;;;;;1116.43;999.90;;;;;;;;;;5008353;28;20486;-66
2023/08/09 06:00:17;;;;;;;1122.63;999.90;;;;;;;;;;5020856;28;20433;-67
2023/08/09 06:02:44;;;;;;;1133.45;999.90;;;;;;;;;;5022915;28;20467;-66
2023/08/09 06:05:18;;;;;;;1129.22;999.90;;;;;;;;;;5039021;28;20069;-66
2023/08/09 06:07:45;;;;;;;1133.88;999.90;;;;;;;;;;5041422;28;20698;-64
2023/08/09 06:10:12;;;;;;;1122.30;999.90;;;;;;;;;;5020926;28;20810;-64
2023/08/09 06:12:38;;;;;;;1130.15;999.90;;;;;;;;;;5040778;28;20045;-67
2023/08/09 06:15:06;;;;;;;1137.43;999.90;;;;;;;;;;5019137;28;20037;-66
2023/08/09 06:17:32;;;;;;;1133.25;999.90;;;;;;;;;;5023340;28;20033;-67
2023/08/09 06:19:59;;;;;;;1143.75;999.90;;;;;;;;;;5021762;28;20469;-67
2023/08/09 06:22:25;;;;;;;1141.32;999.90;;;;;;;;;;5034654;28;20642;-64
2023/08/09 06:24:52;;;;;;;1134.32;999.90;;;;;;;;;;5042661;28;20041;-67
2023/08/09 06:27:19;;;;;;;1134.72;999.90;;;;;;;;;;5041274;28;20040;-65
2023/08/09 06:29:46;;;;;;;1139.30;999.90;;;;;;;;;;5022096;28;20083;-64
2023/08/09 06:32:12;;;;;;;1134.03;999.90;;;;;;;;;;5021349;28;20033;-65
2023/08/09 06:34:39;;;;;;;1138.13;999.90;;;;;;;;;;5039222;28;20044;-66
2023/08/09 06:37:06;;;;;;;1141.57;999.90;;;;;;;;;;5021168;28;20041;-65
2023/08/09 06:39:34;;;;;;;1150.60;999.90;;;;;;;;;;5037984;28;20037;-66
2023/08/09 06:42:01;;;;;;;1145.55;999.90;;;;;;;;;;5022102;28;20041;-63
2023/08/09 06:44:30;;;;;;;1138.65;999.90;;;;;;;;;;5022613;28;20048;-65
2023/08/09 06:46:57;;;;;;;1120.18;999.90;;;;;;;;;;5038302;28;20439;-67
2023/08/09 06:49:24;;;;;;;1116.88;999.90;;;;;;;;;;5031871;28;20063;-67
2023/08/09 06:51:51;;;;;;;1112.50;999.90;;;;;;;;;;5040210;28;20029;-65
2023/08/09 06:54:18;;;;;;;1118.45;999.90;;;;;;;;;;5038921;28;20119;-65
2023/08/09 06:56:44;;;;;;;1120.47;999.90;;;;;;;;;;5024134;28;20041;-64
2023/08/09 06:59:11;;;;;;;1127.03;999.90;;;;;;;;;;5042426;28;20052;-64
2023/08/09 07:01:38;;;;;;;1124.10;999.90;;;;;;;;;;5042520;28;20363;-65
2023/08/09 07:04:05;;;;;;;1123.65;999.90;;;;;;;;;;5032556;28;20039;-65
2023/08/09 07:06:32;;;;;;;1127.65;999.90;;;;;;;;;;5041284;28;20045;-65
2023/08/09 07:08:58;;;;;;;1133.97;999.90;;;;;;;;;;5025178;28;20046;-66
2023/08/09 07:11:25;;;;;;;1125.07;999.90;;;;;;;;;;5041508;28;20470;-64
2023/08/09 07:13:52;;;;;;;1127.00;999.90;;;;;;;;;;5041109;28;20045;-66
2023/08/09 07:16:18;;;;;;;1120.05;999.90;;;;;;;;;;5046393;28;20044;-65
2023/08/09 07:18:45;;;;;;;1124.25;999.90;;;;;;;;;;5042031;28;20037;-64
2023/08/09 07:21:12;;;;;;;1133.68;999.90;;;;;;;;;;5040441;28;20045;-64
2023/08/09 07:23:38;;;;;;;1117.97;999.90;;;;;;;;;;5041865;28;20095;-64
2023/08/09 07:26:23;;;;;;;1107.78;999.90;;;;;;;;;;5040101;28;20037;-64
2023/08/09 07:28:49;;;;;;;1121.43;999.90;;;;;;;;;;5033038;28;20051;-65
2023/08/09 07:31:20;;;;;;;1108.80;999.90;;;;;;;;;;5042363;28;20128;-67
2023/08/09 07:33:47;;;;;;;1122.00;999.90;;;;;;;;;;5026322;28;20447;-65
2023/08/09 07:36:14;;;;;;;1114.57;999.90;;;;;;;;;;5043407;28;20079;-66
2023/08/09 07:38:41;;;;;;;1096.75;997.00;;;;;;;;;;5024191;28;20069;-65
2023/08/09 07:41:08;;;;;;;1091.22;994.13;;;;;;;;;;5045551;28;20044;-65
2023/08/09 07:43:35;;;;;;;1102.47;999.60;;;;;;;;;;5030303;28;20052;-65
2023/08/09 07:46:04;;;;;;;1102.20;998.67;;;;;;;;;;5024324;28;20098;-66
2023/08/09 07:48:31;;;;;;;1088.45;990.33;;;;;;;;;;5023309;28;20057;-65
2023/08/09 07:50:58;;;;;;;1076.07;979.70;;;;;;;;;;5042635;28;20363;-66
2023/08/09 07:53:25;;;;;;;1073.00;977.25;;;;;;;;;;5008452;28;20038;-67
2023/08/09 07:55:51;;;;;;;1056.43;959.47;;;;;;;;;;5027412;28;20069;-65
2023/08/09 07:58:18;;;;;;;1045.03;952.22;;;;;;;;;;5025187;28;20045;-65
2023/08/09 08:00:45;;;;;;;1046.05;952.10;;;;;;;;;;5028125;28;20044;-64
2023/08/09 08:03:16;;;;;;;1029.80;937.40;;;;;;;;;;5046961;28;20040;-66
2023/08/09 08:05:44;;;;;;;1008.15;916.22;;;;;;;;;;5029531;28;20547;-64
2023/08/09 08:08:14;;;;;;;1015.15;922.75;;;;;;;;;;5046121;28;20037;-63
2023/08/09 08:10:42;;;;;;;1010.03;908.40;;;;;;;;;;5045731;28;20063;-65
2023/08/09 08:13:09;;;;;;;1012.47;912.08;;;;;;;;;;5030836;28;20033;-66
2023/08/09 08:15:36;;;;;;;994.78;904.63;;;;;;;;;;5044684;28;20040;-66
2023/08/09 08:18:04;;;;;;;995.35;890.42;;;;;;;;;;5030882;28;20041;-65
2023/08/09 08:20:31;;;;;;;998.78;908.55;;;;;;;;;;5045394;28;20351;-63
2023/08/09 08:22:58;;;;;;;1001.45;909.60;;;;;;;;;;5045322;28;20770;-65
2023/08/09 08:25:25;;;;;;;998.63;906.95;;;;;;;;;;5026982;28;20438;-65
2023/08/09 08:43:45;;;;;;;950.92;851.35;;;;;;;;;;5046637;28;20720;-64
2023/08/09 08:51:11;;;;;;;979.92;830.00;;;;;;;;;;4974176;28;20178;-67
2023/08/09 08:53:45;;;;;;;949.63;846.75;;;;;;;;;;4950073;28;20400;-64
2023/08/09 08:56:14;;;;;;;978.70;887.90;;;;;;;;;;4948636;28;20400;-65
2023/08/09 08:58:41;;;;;;;973.40;883.65;;;;;;;;;;4969052;28;20107;-65
2023/08/09 09:01:11;;;;;;;969.38;879.63;;;;;;;;;;4953520;28;20496;-64
2023/08/09 09:03:38;;;;;;;975.60;884.38;;;;;;;;;;4969046;28;20051;-64
2023/08/09 09:06:05;;;;;;;971.58;883.00;;;;;;;;;;4952578;28;20045;-64
2023/08/09 09:08:39;;;;;;;1364.70;884.33;;;;;;;;;;4971648;28;20051;-65
2023/08/09 09:11:18;;;;;;;976.72;885.42;;;;;;;;;;4968371;28;20078;-68
2023/08/09 09:13:46;;;;;;;979.72;888.05;;;;;;;;;;4964793;28;20481;-63
2023/08/09 09:16:16;;;;;;;977.03;888.13;;;;;;;;;;4968306;28;20047;-64
2023/08/09 09:18:45;;;;;;;984.22;895.63;;;;;;;;;;4971391;28;20055;-64
2023/08/09 09:21:12;;;;;;;991.20;897.10;;;;;;;;;;4969458;28;20041;-64
2023/08/09 09:23:38;;;;;;;981.80;892.67;;;;;;;;;;4965910;28;20479;-64
2023/08/09 09:26:05;;;;;;;989.58;897.30;;;;;;;;;;4969804;28;20186;-65
2023/08/09 09:28:38;;;;;;;994.03;905.08;;;;;;;;;;4967603;28;20043;-66
2023/08/09 09:31:06;;;;;;;1002.00;911.88;;;;;;;;;;5037032;28;20060;-64
2023/08/09 09:33:34;;;;;;;1007.97;915.92;;;;;;;;;;5031156;28;20056;-64
2023/08/09 09:36:01;;;;;;;1007.70;916.78;;;;;;;;;;5052108;28;20072;-64
2023/08/09 09:38:28;;;;;;;1014.13;922.53;;;;;;;;;;5048568;28;20120;-64
2023/08/09 09:40:56;;;;;;;1004.85;907.90;;;;;;;;;;5033462;28;20049;-67
2023/08/09 09:43:26;;;;;;;1021.30;925.72;;;;;;;;;;5028977;28;20069;-65
2023/08/09 09:45:56;;;;;;;1028.28;915.38;;;;;;;;;;5033655;28;20068;-64
2023/08/09 09:48:23;;;;;;;1002.10;912.78;;;;;;;;;;5032540;28;20037;-65
2023/08/09 09:50:50;;;;;;;996.30;905.63;;;;;;;;;;5050229;28;20045;-65
2023/08/09 09:53:17;;;;;;;987.30;898.22;;;;;;;;;;5047844;28;20082;-64
2023/08/09 09:55:44;;;;;;;992.55;901.75;;;;;;;;;;5027633;28;20112;-63
2023/08/09 09:58:16;;;;;;;992.15;901.08;;;;;;;;;;5048861;28;20047;-62
2023/08/09 10:00:47;;;;;;;983.45;894.67;;;;;;;;;;5031669;28;20091;-64
2023/08/09 10:03:17;;;;;;;980.47;892.40;;;;;;;;;;5048106;28;20048;-63
2023/08/09 10:05:46;;;;;;;979.60;891.00;;;;;;;;;;5047077;28;20040;-65
2023/08/09 10:08:14;;;;;;;977.00;887.05;;;;;;;;;;5046388;28;20032;-67
2023/08/09 10:10:42;;;;;;;990.50;900.58;;;;;;;;;;5028336;28;20072;-66
2023/08/09 10:13:11;;;;;;;970.03;882.33;;;;;;;;;;5033779;28;20044;-62
2023/08/09 10:15:37;;;;;;;965.80;877.63;;;;;;;;;;5044662;28;20056;-65
2023/08/09 10:18:10;;;;;;;970.00;882.47;;;;;;;;;;5024922;28;20036;-61
2023/08/09 10:20:46;;;;;;;964.30;875.05;;;;;;;;;;5026945;28;20048;-65
2023/08/09 10:23:20;;;;;;;956.60;864.80;;;;;;;;;;5044896;28;20045;-68
2023/08/09 10:25:47;;;;;;;951.78;857.47;;;;;;;;;;5020408;28;20091;-67
2023/08/09 10:28:15;;;;;;;951.17;852.53;;;;;;;;;;5048850;28;20033;-63
2023/08/09 10:30:48;;;;;;;952.40;860.78;;;;;;;;;;5027073;28;20634;-61
2023/08/09 10:33:19;;;;;;;964.85;877.22;;;;;;;;;;5041539;28;20116;-62
2023/08/09 10:35:54;;;;;;;955.38;861.00;;;;;;;;;;5030371;28;20140;-64
2023/08/09 10:38:37;;;;;;;950.83;856.95;;;;;;;;;;5028140;28;20045;-62
2023/08/09 10:41:14;;;;;;;969.05;878.45;;;;;;;;;;5045544;28;20405;-64
2023/08/09 10:43:41;;;;;;;984.90;889.40;;;;;;;;;;5042064;28;20549;-63
2023/08/09 10:46:17;;;;;;;995.83;895.92;;;;;;;;;;5043327;28;20044;-64
2023/08/09 10:48:54;;;;;;;963.78;864.00;;;;;;;;;;5010874;28;20041;-65
2023/08/09 10:51:22;;;;;;;983.60;892.33;;;;;;;;;;5030668;28;20025;-62
2023/08/09 10:58:00;;;;;;;954.42;858.05;;;;;;;;;;5044965;28;20048;-63
2023/08/09 11:00:59;;;;;;;959.45;867.53;;;;;;;;;;5024247;28;20049;-65
2023/08/09 11:04:18;;;;;;;944.88;847.92;;;;;;;;;;5000743;28;20368;-63
2023/08/09 11:07:09;;;;;;;967.88;874.38;;;;;;;;;;4994793;28;20034;-62
2023/08/09 11:09:50;;;;;;;984.13;891.00;;;;;;;;;;5013158;28;20487;-63
2023/08/09 11:12:59;;;;;;;985.17;893.05;;;;;;;;;;5011761;28;20046;-63
2023/08/09 11:15:53;;;;;;;979.45;880.45;;;;;;;;;;5005488;28;20046;-62
2023/08/09 11:18:38;;;;;;;998.78;902.75;;;;;;;;;;4991465;28;20065;-64
2023/08/09 11:21:22;;;;;;;1011.95;920.60;;;;;;;;;;5006244;28;20038;-63
2023/08/09 11:24:01;;;;;;;1016.65;923.58;;;;;;;;;;5008529;28;20048;-63
2023/08/09 11:26:55;;;;;;;1014.28;920.95;;;;;;;;;;5007467;28;20483;-62
2023/08/09 11:29:35;;;;;;;1014.97;921.97;;;;;;;;;;4987205;28;20069;-63
2023/08/09 11:32:15;;;;;;;1023.25;930.50;;;;;;;;;;4995119;28;20069;-65
2023/08/09 11:34:45;;;;;;;1013.33;915.97;;;;;;;;;;4994271;28;20124;-63
2023/08/09 11:37:12;;;;;;;1017.83;917.50;;;;;;;;;;5010647;28;20108;-62
2023/08/09 11:39:39;;;;;;;1013.85;921.45;;;;;;;;;;5011536;28;20069;-64
2023/08/09 11:42:06;;;;;;;1019.50;930.42;;;;;;;;;;5011768;28;20034;-62
2023/08/09 11:44:35;;;;;;;1011.38;922.75;;;;;;;;;;5010666;28;20050;-62
2023/08/09 11:47:03;;;;;;;1017.10;925.10;;;;;;;;;;5009458;28;20067;-64
2023/08/09 11:49:34;;;;;;;1017.45;923.65;;;;;;;;;;5010768;28;20060;-63
2023/08/09 11:52:01;;;;;;;1011.22;923.15;;;;;;;;;;5011279;28;20052;-63
2023/08/09 11:54:29;;;;;;;1017.55;926.40;;;;;;;;;;5010972;28;20438;-62
2023/08/09 11:56:56;;;;;;;1018.35;928.13;;;;;;;;;;5009848;28;20096;-64
2023/08/09 11:59:24;;;;;;;1029.15;938.63;;;;;;;;;;5010815;28;20340;-64
2023/08/09 12:01:52;;;;;;;1023.70;926.35;;;;;;;;;;5021913;28;20441;-64
2023/08/09 12:04:23;;;;;;;1025.85;935.75;;;;;;;;;;5021853;28;20438;-63
2023/08/09 12:06:50;;;;;;;1020.05;930.75;;;;;;;;;;5041230;28;20041;-64
2023/08/09 12:09:45;;;;;;;1015.47;925.13;;;;;;;;;;5018208;28;20037;-63
2023/08/09 12:12:33;;;;;;;1016.03;926.30;;;;;;;;;;5019259;28;20409;-63
2023/08/09 12:15:00;;;;;;;1013.15;922.42;;;;;;;;;;5030381;28;20045;-63
2023/08/09 12:17:30;;;;;;;1018.70;929.35;;;;;;;;;;5041916;28;20095;-63
2023/08/09 12:19:58;;;;;;;1016.40;923.83;;;;;;;;;;5024264;28;20045;-64
2023/08/09 12:22:27;;;;;;;1007.08;917.60;;;;;;;;;;5044712;28;20111;-64
2023/08/09 12:24:54;;;;;;;1003.20;914.35;;;;;;;;;;5025448;28;20041;-66
2023/08/09 12:27:21;;;;;;;1002.10;914.05;;;;;;;;;;5022475;28;20152;-64
2023/08/09 12:29:48;;;;;;;1011.35;922.67;;;;;;;;;;5023213;28;20049;-63
2023/08/09 12:32:16;;;;;;;998.75;910.05;;;;;;;;;;5024188;28;20088;-63
2023/08/09 12:34:42;;;;;;;1001.28;910.85;;;;;;;;;;5043369;28;20543;-64
2023/08/09 12:37:10;;;;;;;995.15;906.72;;;;;;;;;;5039602;28;20053;-64
2023/08/09 12:39:37;;;;;;;995.45;901.70;;;;;;;;;;5041475;28;20127;-63
2023/08/09 12:42:04;;;;;;;996.25;904.92;;;;;;;;;;5024357;28;20041;-63
2023/08/09 12:44:32;;;;;;;987.15;896.70;;;;;;;;;;5046170;28;20045;-63
2023/08/09 12:46:59;;;;;;;996.78;901.83;;;;;;;;;;5023250;28;20905;-63
2023/08/09 12:49:26;;;;;;;980.42;892.53;;;;;;;;;;5028391;28;20041;-63
2023/08/09 12:51:53;;;;;;;978.85;892.08;;;;;;;;;;5009958;28;20747;-64
2023/08/09 12:54:20;;;;;;;972.33;882.35;;;;;;;;;;5025548;28;20048;-62
2023/08/09 12:56:47;;;;;;;966.53;879.47;;;;;;;;;;5025986;28;20131;-64
2023/08/09 12:59:14;;;;;;;964.08;877.08;;;;;;;;;;5044780;28;20029;-64
2023/08/09 13:01:43;;;;;;;967.22;879.67;;;;;;;;;;5040793;28;20144;-66
2023/08/09 13:04:12;;;;;;;958.15;870.97;;;;;;;;;;5038200;28;20057;-63
2023/08/09 13:06:39;;;;;;;959.42;871.35;;;;;;;;;;5044509;28;20128;-64
2023/08/09 13:09:08;;;;;;;950.70;865.15;;;;;;;;;;5027500;28;20114;-63
2023/08/09 13:11:35;;;;;;;962.00;874.83;;;;;;;;;;5011406;28;20041;-63
2023/08/09 13:14:01;;;;;;;985.42;892.25;;;;;;;;;;5026626;28;20484;-63
2023/08/09 13:16:29;;;;;;;964.13;873.28;;;;;;;;;;5027806;28;20045;-63
2023/08/09 13:18:56;;;;;;;972.60;881.28;;;;;;;;;;5027167;28;20048;-62
2023/08/09 13:21:23;;;;;;;970.22;882.72;;;;;;;;;;5041685;28;20072;-64
2023/08/09 13:23:49;;;;;;;970.13;883.33;;;;;;;;;;5043094;28;20056;-63
2023/08/09 13:26:16;;;;;;;973.30;884.33;;;;;;;;;;5044523;28;20497;-63
2023/08/09 13:28:43;;;;;;;973.42;885.92;;;;;;;;;;5042618;28;20045;-68
2023/08/09 13:31:09;;;;;;;958.80;872.45;;;;;;;;;;5043087;28;20045;-64
2023/08/09 13:33:37;;;;;;;960.05;871.60;;;;;;;;;;5043425;28;20116;-63
2023/08/09 13:36:04;;;;;;;962.25;872.75;;;;;;;;;;5024058;28;20037;-65
2023/08/09 13:38:38;;;;;;;957.40;868.65;;;;;;;;;;5029138;28;20110;-64
2023/08/09 13:41:06;;;;;;;955.97;865.70;;;;;;;;;;5026632;28;20040;-63
2023/08/09 13:43:33;;;;;;;946.20;858.90;;;;;;;;;;5026544;28;20135;-65
2023/08/09 13:46:03;;;;;;;930.80;844.10;;;;;;;;;;5046502;28;20044;-65
2023/08/09 13:48:30;;;;;;;922.50;836.25;;;;;;;;;;5027053;28;20040;-65
2023/08/09 13:50:56;;;;;;;906.17;820.47;;;;;;;;;;5043824;28;20068;-65
2023/08/09 13:53:23;;;;;;;886.22;801.25;;;;;;;;;;5026208;28;20045;-64
2023/08/09 13:55:50;;;;;;;888.47;801.67;;;;;;;;;;5041378;28;20043;-63
2023/08/09 13:58:16;;;;;;;869.33;786.92;;;;;;;;;;5024395;28;20132;-65
2023/08/09 14:00:43;;;;;;;880.90;797.65;;;;;;;;;;5042748;28;20052;-63
2023/08/09 14:03:12;;;;;;;856.50;773.55;;;;;;;;;;5042680;28;20045;-62
2023/08/09 14:05:39;;;;;;;858.65;774.42;;;;;;;;;;5044863;28;20041;-64
2023/08/09 14:08:06;;;;;;;855.60;771.00;;;;;;;;;;5025355;28;20036;-65
2023/08/09 14:10:32;;;;;;;845.90;763.05;;;;;;;;;;5044702;28;20049;-65
2023/08/09 14:13:00;;;;;;;835.75;751.97;;;;;;;;;;5027158;28;20124;-65
2023/08/09 14:15:27;;;;;;;817.28;734.42;;;;;;;;;;5030300;28;20045;-67
2023/08/09 14:17:54;;;;;;;817.58;734.72;;;;;;;;;;5025502;28;20037;-67
2023/08/09 14:20:22;;;;;;;806.60;721.78;;;;;;;;;;5023855;28;20084;-65
2023/08/09 14:22:49;;;;;;;808.95;723.97;;;;;;;;;;5023331;28;20048;-65